Time;durP1;ratioP1;P1;durP2;ratioP2;P2;SDS_P1;SDS_P2;PMS_P1;PMS_P2;Temp;Humidity;BMP_temperature;BMP_pressure;BME280_temperature;BME280_humidity;BME280_pressure;Samples;Min_cycle;Max_cycle;Signal;HPM_P1;HPM_P2
2022/02/21 00:00:10;;;;;;;18.35;2.45;;;;;;;11.97;100.00;99403.63;4911530;29;20044;-54
2022/02/21 00:02:42;;;;;;;22.05;3.50;;;;;;;12.22;100.00;99427.44;4920529;29;20116;-51
2022/02/21 00:05:07;;;;;;;26.23;4.32;;;;;;;11.72;100.00;99420.84;4904509;29;20048;-53
2022/02/21 00:07:34;;;;;;;;;;;;;;;11.56;100.00;99425.06;4914755;29;20024;-51
2022/02/21 00:09:59;;;;;;;23.47;2.57;;;;;;;11.34;100.00;99433.72;4910644;29;19926;-51
2022/02/21 00:12:24;;;;;;;22.93;4.10;;;;;;;11.29;100.00;99447.00;4907821;29;20073;-50
2022/02/21 00:14:50;;;;;;;26.77;3.65;;;;;;;11.36;100.00;99444.22;4916723;29;20056;-53
2022/02/21 00:17:16;;;;;;;28.53;6.20;;;;;;;11.78;100.00;99454.72;4903862;29;20036;-48
2022/02/21 00:19:41;;;;;;;24.13;2.57;;;;;;;11.57;100.00;99465.00;4919972;29;20041;-48
2022/02/21 00:22:07;;;;;;;16.10;2.67;;;;;;;11.47;100.00;99467.47;4909966;29;20037;-48
2022/02/21 00:24:32;;;;;;;15.47;3.20;;;;;;;11.57;100.00;99478.41;4914685;29;20044;-50
2022/02/21 00:26:58;;;;;;;20.50;3.60;;;;;;;11.28;100.00;99488.19;4904205;29;20060;-48
2022/02/21 00:29:24;;;;;;;26.17;3.63;;;;;;;11.67;100.00;99495.72;4914640;29;20033;-51
2022/02/21 00:31:50;;;;;;;24.95;3.45;;;;;;;11.45;100.00;99459.69;4908957;29;20064;-50
2022/02/21 00:34:15;;;;;;;22.63;4.20;;;;;;;11.61;100.00;99509.00;4908475;29;20041;-49
2022/02/21 00:36:41;;;;;;;12.38;2.90;;;;;;;11.53;100.00;99513.91;4900872;29;20100;-50
2022/02/21 00:39:07;;;;;;;22.23;3.42;;;;;;;11.22;100.00;99502.50;4916424;29;20056;-48
2022/02/21 00:41:32;;;;;;;27.50;3.17;;;;;;;11.53;100.00;99527.28;4890250;29;20104;-50
2022/02/21 00:43:58;;;;;;;13.57;4.27;;;;;;;11.21;100.00;99504.38;4910760;29;20049;-52
2022/02/21 00:46:23;;;;;;;20.30;3.90;;;;;;;11.08;100.00;99544.75;4901077;29;20369;-48
2022/02/21 00:48:49;;;;;;;27.42;4.05;;;;;;;11.43;100.00;99517.16;4915966;29;20044;-51
2022/02/21 00:51:15;;;;;;;18.92;2.65;;;;;;;11.44;100.00;99540.22;4904044;29;20482;-50
2022/02/21 00:53:40;;;;;;;22.57;3.53;;;;;;;11.39;100.00;99550.81;4912575;29;20045;-50
2022/02/21 00:56:07;;;;;;;22.83;3.88;;;;;;;11.57;100.00;99542.66;4910598;29;20279;-50
2022/02/21 00:58:32;;;;;;;15.67;2.83;;;;;;;11.80;100.00;99540.19;4905899;29;20048;-47
2022/02/21 01:00:58;;;;;;;17.90;2.67;;;;;;;11.47;100.00;99543.25;4915777;29;20136;-52
2022/02/21 01:03:23;;;;;;;13.30;3.10;;;;;;;11.33;100.00;99566.75;4904928;29;20044;-49
2022/02/21 01:05:48;;;;;;;13.40;2.57;;;;;;;11.61;100.00;99567.91;4911673;29;20040;-50
2022/02/21 01:08:14;;;;;;;15.75;2.58;;;;;;;11.69;100.00;99580.16;4911218;29;20071;-48
2022/02/21 01:10:40;;;;;;;8.38;3.08;;;;;;;11.99;100.00;99556.91;4904930;29;20037;-50
2022/02/21 01:13:06;;;;;;;14.43;2.30;;;;;;;11.72;100.00;99578.84;4915745;29;20036;-48
2022/02/21 01:15:31;;;;;;;20.02;2.45;;;;;;;11.54;100.00;99590.50;4900297;29;20056;-51
2022/02/21 01:17:57;;;;;;;12.00;2.45;;;;;;;11.53;100.00;99587.00;4908876;29;20068;-50
2022/02/21 01:20:23;;;;;;;17.17;2.38;;;;;;;11.40;100.00;99593.38;4906950;29;20070;-53
2022/02/21 01:22:50;;;;;;;22.88;3.13;;;;;;;11.26;100.00;99614.19;4915467;29;20044;-51
2022/02/21 01:25:15;;;;;;;19.55;2.25;;;;;;;11.09;100.00;99597.19;4902912;29;20045;-49
2022/02/21 01:27:41;;;;;;;19.02;2.33;;;;;;;10.95;100.00;99589.38;4912278;29;20104;-53
2022/02/21 01:30:08;;;;;;;11.27;2.40;;;;;;;11.42;100.00;99591.31;4910039;29;20052;-48
2022/02/21 01:32:34;;;;;;;12.07;2.35;;;;;;;11.12;100.00;99623.50;4905451;29;20636;-49
2022/02/21 01:34:59;;;;;;;13.55;2.13;;;;;;;11.56;100.00;99615.19;4916390;29;20036;-47
2022/02/21 01:37:25;;;;;;;14.40;2.47;;;;;;;11.26;100.00;99616.88;4914591;29;20037;-49
2022/02/21 01:39:51;;;;;;;12.65;1.83;;;;;;;11.15;100.00;99612.34;4907974;29;20096;-48
2022/02/21 01:42:17;;;;;;;24.67;2.85;;;;;;;11.35;100.00;99605.84;4918746;29;20097;-50
2022/02/21 01:44:46;;;;;;;21.52;2.55;;;;;;;11.48;100.00;99613.66;4904101;29;20070;-50
2022/02/21 01:47:15;;;;;;;23.65;2.47;;;;;;;11.36;100.00;99610.16;4915246;29;20056;-51
2022/02/21 01:49:40;;;;;;;15.57;3.38;;;;;;;11.08;100.00;99622.31;4906302;29;20033;-49
2022/02/21 01:52:06;;;;;;;15.60;3.63;;;;;;;11.07;100.00;99632.19;4908698;29;20047;-50
2022/02/21 01:54:33;;;;;;;15.05;2.58;;;;;;;11.17;100.00;99620.94;4912706;29;20056;-47
2022/02/21 01:56:59;;;;;;;;;;;;;;;11.39;100.00;99628.44;4917680;29;20040;-55
2022/02/21 01:59:24;;;;;;;15.13;2.70;;;;;;;11.00;100.00;99632.28;4904257;29;19920;-49
2022/02/21 02:01:53;;;;;;;13.07;2.30;;;;;;;10.87;100.00;99613.78;4918512;29;20123;-47
2022/02/21 02:04:19;;;;;;;20.55;2.50;;;;;;;10.92;100.00;99624.59;4907284;29;20037;-47
2022/02/21 02:06:47;;;;;;;18.83;2.63;;;;;;;11.02;100.00;99635.56;4914262;29;20056;-51
2022/02/21 02:09:13;;;;;;;21.33;2.70;;;;;;;11.08;100.00;99630.34;4902755;29;20100;-50
2022/02/21 02:11:39;;;;;;;22.38;3.50;;;;;;;10.86;100.00;99628.19;4912379;29;20029;-52
2022/02/21 02:14:05;;;;;;;16.48;2.30;;;;;;;11.27;100.00;99650.63;4892848;29;20044;-52
2022/02/21 02:16:31;;;;;;;17.77;2.63;;;;;;;11.39;100.00;99636.47;4918272;29;20100;-48
2022/02/21 02:18:57;;;;;;;17.55;3.85;;;;;;;10.85;100.00;99640.72;4917838;29;20068;-51
2022/02/21 02:21:26;;;;;;;14.88;2.47;;;;;;;10.80;100.00;99613.84;4903670;29;20041;-50
2022/02/21 02:23:53;;;;;;;26.73;2.60;;;;;;;11.09;99.50;99650.72;4918653;29;20092;-51
2022/02/21 02:26:19;;;;;;;;;;;;;;;10.94;100.00;99649.25;4907814;29;20049;-48
2022/02/21 02:28:47;;;;;;;12.98;2.63;;;;;;;11.39;100.00;99655.19;4914339;29;19919;-47
2022/02/21 02:31:13;;;;;;;14.18;2.63;;;;;;;11.61;100.00;99661.63;4902716;29;20045;-52
2022/02/21 02:33:38;;;;;;;27.63;3.43;;;;;;;11.50;95.62;99654.38;4912255;29;20039;-50
2022/02/21 02:36:05;;;;;;;12.93;2.42;;;;;;;11.54;100.00;99647.56;4899748;29;20033;-47
2022/02/21 02:38:31;;;;;;;17.98;2.10;;;;;;;11.31;91.55;99659.84;4915178;29;20051;-48
2022/02/21 02:40:57;;;;;;;8.70;2.17;;;;;;;11.40;94.67;99630.06;4905995;29;20077;-50
2022/02/21 02:43:23;;;;;;;19.87;3.13;;;;;;;11.58;87.34;99645.22;4917946;29;20041;-53
2022/02/21 02:45:49;;;;;;;16.70;2.88;;;;;;;11.18;88.86;99643.97;4909983;29;20036;-50
2022/02/21 02:48:14;;;;;;;21.48;3.38;;;;;;;11.27;87.82;99637.25;4911138;29;20104;-47
2022/02/21 02:50:39;;;;;;;18.57;2.53;;;;;;;11.39;90.77;99628.44;4900128;29;20100;-50
2022/02/21 02:53:05;;;;;;;14.93;2.23;;;;;;;10.94;85.26;99638.56;4905963;29;20077;-51
2022/02/21 02:55:31;;;;;;;11.68;1.75;;;;;;;11.44;86.64;99640.09;4921223;29;20044;-49
2022/02/21 02:57:57;;;;;;;10.15;2.05;;;;;;;11.20;83.19;99657.94;4916171;29;20048;-47
2022/02/21 03:00:23;;;;;;;16.83;3.40;;;;;;;10.87;95.94;99657.38;4909906;29;20067;-49
2022/02/21 03:02:48;;;;;;;20.05;2.30;;;;;;;10.91;100.00;99655.06;4917323;29;20033;-50
2022/02/21 03:05:14;;;;;;;12.53;2.73;;;;;;;10.59;100.00;99645.38;4905526;29;20100;-50
2022/02/21 03:07:39;;;;;;;17.13;3.43;;;;;;;11.09;100.00;99651.50;4915387;29;20031;-49
2022/02/21 03:10:04;;;;;;;19.33;2.53;;;;;;;10.99;100.00;99644.03;4911534;29;20061;-48
2022/02/21 03:12:30;;;;;;;27.88;4.95;;;;;;;10.58;100.00;99637.56;4908708;29;20052;-51
2022/02/21 03:14:59;;;;;;;19.67;4.07;;;;;;;10.45;100.00;99658.09;4917950;29;20044;-49
2022/02/21 03:17:24;;;;;;;16.60;2.67;;;;;;;10.69;100.00;99658.22;4906412;29;20039;-47
2022/02/21 03:19:50;;;;;;;11.73;2.73;;;;;;;10.63;100.00;99648.44;4913819;29;20041;-50
2022/02/21 03:22:16;;;;;;;14.27;2.53;;;;;;;10.21;100.00;99648.28;4912934;29;20275;-47
2022/02/21 03:24:42;;;;;;;20.90;2.85;;;;;;;10.58;100.00;99673.16;4907225;29;20056;-52
2022/02/21 03:27:07;;;;;;;22.93;3.77;;;;;;;9.61;100.00;99653.94;4917597;29;20040;-50
2022/02/21 03:29:33;;;;;;;12.77;2.07;;;;;;;10.02;100.00;99654.41;4907102;29;20024;-51
2022/02/21 03:31:58;;;;;;;19.30;3.10;;;;;;;9.85;100.00;99659.50;4912774;29;20108;-46
2022/02/21 03:34:24;;;;;;;15.60;2.47;;;;;;;9.90;100.00;99670.31;4913549;29;20041;-52
2022/02/21 03:36:49;;;;;;;13.67;2.63;;;;;;;9.92;100.00;99653.25;4905829;29;20040;-51
2022/02/21 03:39:15;;;;;;;14.68;2.80;;;;;;;9.96;100.00;99665.16;4917587;29;20041;-48
2022/02/21 03:41:40;;;;;;;21.97;4.47;;;;;;;10.45;100.00;99667.97;4907723;29;20033;-54
2022/02/21 03:44:06;;;;;;;16.57;2.27;;;;;;;9.66;100.00;99684.50;4911740;29;20292;-50
2022/02/21 03:46:32;;;;;;;25.37;3.50;;;;;;;9.55;100.00;99664.69;4914265;29;20044;-53
2022/02/21 03:48:58;;;;;;;26.13;2.72;;;;;;;9.82;100.00;99681.31;4904537;29;20041;-48
2022/02/21 03:51:24;;;;;;;15.15;2.70;;;;;;;9.97;100.00;99672.16;4917162;29;20033;-49
2022/02/21 03:53:50;;;;;;;25.63;3.35;;;;;;;9.96;100.00;99681.19;4908657;29;20064;-51
2022/02/21 03:56:16;;;;;;;18.07;3.77;;;;;;;10.42;100.00;99677.25;4910137;29;20083;-51
2022/02/21 03:58:43;;;;;;;20.88;2.63;;;;;;;9.87;100.00;99688.66;4915343;29;20112;-54
2022/02/21 04:01:09;;;;;;;13.30;2.33;;;;;;;9.74;100.00;99670.91;4904497;29;20049;-52
2022/02/21 04:03:34;;;;;;;17.40;3.05;;;;;;;10.11;100.00;99678.97;4915354;29;20036;-53
2022/02/21 04:06:00;;;;;;;19.88;3.42;;;;;;;10.31;100.00;99688.63;4909797;29;20040;-50
2022/02/21 04:08:26;;;;;;;13.48;2.53;;;;;;;9.69;100.00;99673.41;4908632;29;20041;-50
2022/02/21 04:10:51;;;;;;;24.30;3.30;;;;;;;10.23;100.00;99671.03;4916044;29;20093;-50
2022/02/21 04:13:17;;;;;;;22.40;2.97;;;;;;;10.04;100.00;99683.56;4904248;29;20040;-54
2022/02/21 04:15:42;;;;;;;16.27;2.70;;;;;;;9.84;100.00;99695.25;4914233;29;20033;-51
2022/02/21 04:18:08;;;;;;;11.80;2.13;;;;;;;10.07;100.00;99699.16;4910478;29;20044;-50
2022/02/21 04:20:34;;;;;;;11.80;2.27;;;;;;;10.08;100.00;99681.28;4907354;29;20292;-53
2022/02/21 04:22:59;;;;;;;18.90;3.63;;;;;;;10.04;100.00;99694.25;4916656;29;20064;-52
2022/02/21 04:25:24;;;;;;;11.80;2.70;;;;;;;10.00;100.00;99699.22;4904849;29;20041;-50
2022/02/21 04:27:52;;;;;;;13.38;2.97;;;;;;;10.14;100.00;99689.22;4913255;29;20145;-53
2022/02/21 04:30:23;;;;;;;17.27;2.95;;;;;;;10.10;100.00;99706.72;4910613;29;20037;-56
2022/02/21 04:32:49;;;;;;;16.83;3.17;;;;;;;10.09;100.00;99697.06;4905193;29;20610;-51
2022/02/21 04:35:16;;;;;;;20.08;2.17;;;;;;;10.55;100.00;99699.50;4918445;29;20074;-49
2022/02/21 04:37:42;;;;;;;8.55;1.73;;;;;;;9.99;94.75;99702.13;4913827;29;20061;-52
2022/02/21 04:40:10;;;;;;;19.25;4.85;;;;;;;10.43;100.00;99697.59;4909602;29;20104;-49
2022/02/21 04:42:37;;;;;;;23.50;3.65;;;;;;;9.49;100.00;99661.03;4906438;29;20048;-48
2022/02/21 04:45:04;;;;;;;20.90;5.20;;;;;;;9.76;100.00;99684.84;4916076;29;20044;-48
2022/02/21 04:47:29;;;;;;;31.13;6.97;;;;;;;10.19;100.00;99685.88;4904861;29;20032;-48
2022/02/21 04:49:55;;;;;;;28.95;4.70;;;;;;;9.85;100.00;99696.88;4911901;29;20060;-47
2022/02/21 04:52:21;;;;;;;14.53;3.43;;;;;;;10.16;100.00;99687.16;4911232;29;20033;-50
2022/02/21 04:54:46;;;;;;;24.15;3.47;;;;;;;9.97;100.00;99690.84;4905169;29;20146;-48
2022/02/21 04:57:12;;;;;;;16.33;2.10;;;;;;;9.92;100.00;99678.13;4915756;29;20055;-48
2022/02/21 04:59:38;;;;;;;21.35;3.45;;;;;;;10.09;100.00;99681.06;4905384;29;20036;-52
2022/02/21 05:02:05;;;;;;;21.90;5.87;;;;;;;10.12;100.00;99685.94;4909923;29;20070;-47
2022/02/21 05:04:31;;;;;;;18.60;4.70;;;;;;;10.40;100.00;99687.34;4912270;29;20044;-48
2022/02/21 05:06:56;;;;;;;14.63;5.17;;;;;;;10.07;100.00;99676.97;4903993;29;20068;-49
2022/02/21 05:09:21;;;;;;;27.03;5.70;;;;;;;10.43;100.00;99686.91;4916024;29;20032;-48
2022/02/21 05:11:47;;;;;;;18.53;3.37;;;;;;;9.85;100.00;99683.53;4906470;29;20271;-47
2022/02/21 05:14:13;;;;;;;20.00;4.22;;;;;;;10.24;100.00;99682.56;4909555;29;20040;-49
2022/02/21 05:16:38;;;;;;;25.97;4.83;;;;;;;10.42;100.00;99687.94;4913099;29;20045;-53
2022/02/21 05:19:04;;;;;;;22.43;5.97;;;;;;;10.27;100.00;99680.28;4903471;29;20033;-51
2022/02/21 05:21:30;;;;;;;35.53;4.87;;;;;;;9.85;100.00;99670.19;4915025;29;20283;-52
2022/02/21 05:23:56;;;;;;;17.95;2.40;;;;;;;10.25;100.00;99673.50;4900143;29;20056;-47
2022/02/21 05:26:22;;;;;;;13.38;3.85;;;;;;;10.32;100.00;99672.41;4910956;29;20044;-49
2022/02/21 05:28:48;;;;;;;21.23;4.22;;;;;;;10.40;100.00;99676.66;4888614;29;20048;-48
2022/02/21 05:31:13;;;;;;;21.83;3.70;;;;;;;10.45;100.00;99666.13;4915272;29;20045;-50
2022/02/21 05:33:38;;;;;;;17.43;3.93;;;;;;;10.12;100.00;99661.09;4904956;29;20064;-53
2022/02/21 05:36:04;;;;;;;13.93;3.53;;;;;;;9.93;100.00;99681.63;4910426;29;20048;-51
2022/02/21 05:38:29;;;;;;;31.27;4.30;;;;;;;9.95;100.00;99674.22;4911715;29;20072;-51
2022/02/21 05:40:54;;;;;;;25.30;4.40;;;;;;;9.65;100.00;99685.53;4904055;29;20041;-53
2022/02/21 05:43:20;;;;;;;28.33;5.50;;;;;;;9.87;100.00;99672.63;4915206;29;20041;-50
2022/02/21 05:45:45;;;;;;;23.73;6.17;;;;;;;10.07;100.00;99676.97;4905631;29;20096;-49
2022/02/21 05:48:11;;;;;;;21.38;4.15;;;;;;;9.76;100.00;99674.16;4909371;29;20049;-51
2022/02/21 05:50:37;;;;;;;23.33;5.53;;;;;;;9.83;100.00;99664.25;4912480;29;20104;-49
2022/02/21 05:53:02;;;;;;;20.57;6.30;;;;;;;9.50;100.00;99667.19;4903053;29;20037;-48
2022/02/21 05:55:28;;;;;;;23.80;5.23;;;;;;;9.98;100.00;99663.09;4918363;29;20048;-50
2022/02/21 05:57:57;;;;;;;25.37;5.23;;;;;;;9.96;100.00;99662.50;4912072;29;20291;-53
2022/02/21 06:00:23;;;;;;;40.50;6.05;;;;;;;10.02;100.00;99658.94;4910369;29;20075;-50
2022/02/21 06:02:48;;;;;;;24.90;4.80;;;;;;;10.01;100.00;99666.13;4902112;29;20045;-49
2022/02/21 06:05:14;;;;;;;34.37;5.73;;;;;;;9.89;100.00;99655.34;4886328;29;20052;-52
2022/02/21 06:07:39;;;;;;;20.42;4.20;;;;;;;9.33;100.00;99678.38;4913447;29;20065;-48
2022/02/21 06:10:05;;;;;;;24.60;4.83;;;;;;;9.69;100.00;99660.06;4907988;29;20037;-51
2022/02/21 06:12:34;;;;;;;21.75;5.28;;;;;;;10.11;100.00;99673.63;4908491;29;20045;-48
2022/02/21 06:15:01;;;;;;;18.70;4.30;;;;;;;10.11;96.23;99673.63;4918870;29;20033;-48
2022/02/21 06:17:27;;;;;;;17.20;3.10;;;;;;;9.98;100.00;99661.22;4918790;29;20041;-48
2022/02/21 06:19:52;;;;;;;20.27;3.00;;;;;;;9.89;99.50;99675.91;4909860;29;20139;-50
2022/02/21 06:22:18;;;;;;;21.75;3.00;;;;;;;10.29;100.00;99672.84;4922096;29;20040;-49
2022/02/21 06:24:45;;;;;;;20.23;4.03;;;;;;;10.07;100.00;99677.78;4908959;29;20045;-54
2022/02/21 06:27:11;;;;;;;22.60;4.45;;;;;;;9.76;100.00;99682.97;4918716;29;20051;-47
2022/02/21 06:29:37;;;;;;;12.15;3.67;;;;;;;9.88;100.00;99687.63;4907536;29;20041;-51
2022/02/21 06:32:03;;;;;;;20.43;3.80;;;;;;;9.87;100.00;99676.13;4914135;29;20093;-52
2022/02/21 06:34:29;;;;;;;25.15;3.97;;;;;;;9.73;100.00;99674.63;4914222;29;20051;-50
2022/02/21 06:36:54;;;;;;;26.20;3.87;;;;;;;9.72;100.00;99681.00;4907572;29;20509;-50
2022/02/21 06:39:21;;;;;;;15.70;3.10;;;;;;;9.96;100.00;99682.00;4920571;29;20127;-50
2022/02/21 06:41:48;;;;;;;;;;;;;;;10.06;100.00;99673.47;4916243;29;20045;-51
2022/02/21 06:44:13;;;;;;;27.40;3.58;;;;;;;9.86;100.00;99666.47;4912117;29;20359;-49
2022/02/21 06:46:40;;;;;;;22.48;3.15;;;;;;;10.01;100.00;99657.31;4921602;29;20052;-48
2022/02/21 06:49:06;;;;;;;11.68;2.40;;;;;;;9.94;100.00;99668.03;4905750;29;20037;-49
2022/02/21 06:51:35;;;;;;;24.13;3.37;;;;;;;9.89;100.00;99683.91;4917567;29;20029;-47
2022/02/21 06:54:02;;;;;;;16.80;2.55;;;;;;;10.15;100.00;99653.47;4909750;29;20076;-48
2022/02/21 06:56:27;;;;;;;23.40;4.28;;;;;;;10.21;100.00;99666.97;4910652;29;20066;-51
2022/02/21 06:58:53;;;;;;;23.27;2.60;;;;;;;10.32;100.00;99655.53;4916858;29;20044;-50
2022/02/21 07:01:18;;;;;;;18.43;2.57;;;;;;;9.81;100.00;99673.53;4919291;29;20175;-48
2022/02/21 07:03:44;;;;;;;19.63;2.73;;;;;;;9.95;100.00;99690.25;4907686;29;20044;-48
2022/02/21 07:06:09;;;;;;;17.23;2.80;;;;;;;9.67;100.00;99654.94;4921311;29;20043;-51
2022/02/21 07:08:34;;;;;;;13.60;2.87;;;;;;;10.25;98.54;99646.78;4909604;29;20048;-53
2022/02/21 07:11:01;;;;;;;25.83;3.83;;;;;;;10.15;99.09;99648.13;4917391;29;20108;-50
2022/02/21 07:13:29;;;;;;;23.52;2.97;;;;;;;10.09;100.00;99642.84;4905209;29;20036;-47
2022/02/21 07:15:55;;;;;;;21.00;3.67;;;;;;;10.19;100.00;99654.66;4921091;29;20048;-46
2022/02/21 07:18:20;;;;;;;20.30;2.30;;;;;;;9.93;100.00;99638.91;4911116;29;20033;-50
2022/02/21 07:20:46;;;;;;;18.10;2.30;;;;;;;9.85;100.00;99637.34;4915301;29;20041;-50
2022/02/21 07:23:12;;;;;;;29.20;3.13;;;;;;;9.77;100.00;99625.06;4904515;29;20048;-48
2022/02/21 07:25:37;;;;;;;16.87;3.07;;;;;;;9.90;97.13;99643.63;4916383;29;20029;-50
2022/02/21 07:28:03;;;;;;;14.37;3.73;;;;;;;10.24;97.24;99629.91;4909594;29;20040;-51
2022/02/21 07:30:30;;;;;;;15.48;3.85;;;;;;;10.19;100.00;99633.28;4909667;29;20300;-46
2022/02/21 07:32:56;;;;;;;15.30;3.03;;;;;;;10.36;99.87;99626.53;4916228;29;20051;-52
2022/02/21 07:35:22;;;;;;;14.50;2.75;;;;;;;10.09;100.00;99626.81;4905106;29;20049;-48
2022/02/21 07:37:48;;;;;;;24.73;3.10;;;;;;;10.42;96.76;99637.16;4915245;29;20049;-49
2022/02/21 07:40:15;;;;;;;14.40;2.10;;;;;;;10.24;100.00;99623.78;4901710;29;20037;-48
2022/02/21 07:42:47;;;;;;;16.13;2.20;;;;;;;10.17;100.00;99632.69;4897576;29;20183;-53
2022/02/21 07:45:12;;;;;;;11.15;2.53;;;;;;;10.26;100.00;99611.00;4904603;29;20041;-51
2022/02/21 07:47:48;;;;;;;19.63;2.73;;;;;;;10.18;100.00;99625.47;4915888;29;20078;-50
2022/02/21 07:50:14;;;;;;;16.23;2.70;;;;;;;10.08;100.00;99615.31;4910205;29;20041;-51
2022/02/21 07:52:39;;;;;;;14.55;2.60;;;;;;;10.11;98.68;99614.84;4908021;29;20044;-52
2022/02/21 07:55:05;;;;;;;21.23;4.17;;;;;;;10.40;100.00;99612.53;4916920;29;20124;-52
2022/02/21 07:57:31;;;;;;;;;;;;;;;10.44;99.20;99584.31;4905306;29;20068;-51
2022/02/21 07:59:57;;;;;;;14.70;2.83;;;;;;;10.70;96.94;99613.56;4913330;29;19924;-48
2022/02/21 08:02:26;;;;;;;14.45;2.03;;;;;;;10.67;96.16;99624.72;4911237;29;20061;-53
2022/02/21 08:04:52;;;;;;;20.27;3.35;;;;;;;10.74;94.53;99610.22;4906382;29;20056;-51
2022/02/21 08:07:17;;;;;;;22.45;2.90;;;;;;;10.62;96.90;99593.34;4900033;29;20040;-50
2022/02/21 08:09:42;;;;;;;9.00;2.30;;;;;;;10.72;95.54;99593.59;4905838;29;20045;-48
2022/02/21 08:12:09;;;;;;;20.60;2.80;;;;;;;10.76;92.54;99581.41;4911768;29;20064;-51
2022/02/21 08:14:35;;;;;;;9.25;2.40;;;;;;;11.42;87.51;99587.81;4912371;29;20071;-52
2022/02/21 08:17:02;;;;;;;16.98;2.50;;;;;;;10.88;91.58;99567.25;4904940;29;20048;-48
2022/02/21 08:19:27;;;;;;;10.13;2.15;;;;;;;10.55;94.30;99568.53;4916360;29;20048;-50
2022/02/21 08:21:53;;;;;;;15.27;3.07;;;;;;;10.96;94.38;99576.81;4907038;29;20049;-48
2022/02/21 08:24:22;;;;;;;7.07;1.77;;;;;;;11.14;91.74;99605.34;4910348;29;20101;-50
2022/02/21 08:26:48;;;;;;;13.90;3.17;;;;;;;10.67;97.10;99588.13;4913891;29;20044;-47
2022/02/21 08:29:13;;;;;;;18.98;2.55;;;;;;;11.29;93.99;99544.16;4903722;29;20062;-50
2022/02/21 08:31:38;;;;;;;19.70;2.63;;;;;;;11.37;95.96;99540.31;4914800;29;20033;-49
2022/02/21 08:34:04;;;;;;;14.57;3.30;;;;;;;10.30;100.00;99593.47;4907878;29;20316;-50
2022/02/21 08:36:29;;;;;;;13.67;3.00;;;;;;;9.82;100.00;99539.78;4908447;29;20045;-49
2022/02/21 08:38:55;;;;;;;10.73;2.93;;;;;;;10.20;100.00;99524.53;4914078;29;20103;-49
2022/02/21 08:41:21;;;;;;;;;;;;;;;10.17;100.00;99546.38;4903760;29;20104;-47
2022/02/21 08:43:47;;;;;;;17.90;2.67;;;;;;;10.18;100.00;99534.63;4914091;29;19920;-49
2022/02/21 08:46:13;;;;;;;14.70;2.65;;;;;;;10.17;100.00;99517.81;4908804;29;20044;-47
2022/02/21 08:48:39;;;;;;;18.15;2.30;;;;;;;10.04;100.00;99510.78;4907304;29;20401;-50
2022/02/21 08:51:04;;;;;;;20.38;3.67;;;;;;;9.85;100.00;99520.63;4915274;29;20051;-49
2022/02/21 08:53:31;;;;;;;8.68;2.42;;;;;;;9.74;100.00;99502.72;4902877;29;20040;-48
2022/02/21 08:55:57;;;;;;;15.98;3.15;;;;;;;10.30;100.00;99505.31;4912587;29;20036;-51
2022/02/21 08:58:22;;;;;;;18.67;2.70;;;;;;;9.35;100.00;99595.47;4909867;29;20045;-48
2022/02/21 09:00:47;;;;;;;26.07;3.90;;;;;;;9.22;100.00;99569.72;4918480;29;20040;-52
2022/02/21 09:03:13;;;;;;;10.80;3.07;;;;;;;9.34;100.00;99498.56;4917934;29;20048;-47
2022/02/21 09:05:38;;;;;;;16.77;3.20;;;;;;;8.95;100.00;99521.91;4903805;29;20442;-51
2022/02/21 09:08:05;;;;;;;18.75;2.85;;;;;;;8.96;100.00;99531.53;4911408;29;20037;-48
2022/02/21 09:10:31;;;;;;;30.87;3.97;;;;;;;8.66;100.00;99503.66;4910616;29;20037;-48
2022/02/21 09:12:58;;;;;;;25.60;4.63;;;;;;;7.99;100.00;99574.03;4907177;29;20115;-48
2022/02/21 09:15:24;;;;;;;;;;;;;;;13.07;100.00;99511.69;4907976;29;20109;-48
2022/02/21 09:17:49;;;;;;;14.07;2.30;;;;;;;12.34;100.00;99550.69;4918468;29;19919;-52
2022/02/21 09:20:15;;;;;;;19.15;2.70;;;;;;;12.39;100.00;99510.56;4909936;29;20100;-48
2022/02/21 09:22:41;;;;;;;11.87;2.67;;;;;;;12.70;100.00;99497.72;4899795;29;20105;-53
2022/02/21 09:25:07;;;;;;;16.17;2.60;;;;;;;12.40;100.00;99512.19;4914867;29;20072;-51
2022/02/21 09:27:32;;;;;;;26.42;3.47;;;;;;;12.22;100.00;99497.13;4902434;29;20040;-51
2022/02/21 09:29:58;;;;;;;5.17;1.53;;;;;;;15.51;100.00;99553.66;4912135;29;20044;-48
2022/02/21 09:32:23;;;;;;;17.77;3.40;;;;;;;12.97;100.00;99488.19;4899864;29;20051;-54
2022/02/21 09:34:49;;;;;;;15.25;3.42;;;;;;;11.93;100.00;99448.03;4912436;29;20040;-54
2022/02/21 09:37:14;;;;;;;20.13;3.70;;;;;;;11.68;100.00;99462.53;4902068;29;20382;-48
2022/02/21 09:39:40;;;;;;;25.40;3.63;;;;;;;12.58;100.00;99456.72;4913948;29;20088;-54
2022/02/21 09:42:06;;;;;;;11.13;2.20;;;;;;;12.83;100.00;99479.66;4906167;29;20095;-54
2022/02/21 09:44:31;;;;;;;16.75;3.05;;;;;;;12.85;100.00;99450.72;4918074;29;20101;-51
2022/02/21 09:46:57;;;;;;;13.00;2.23;;;;;;;12.84;100.00;99446.41;4917350;29;20075;-54
2022/02/21 09:49:23;;;;;;;18.23;3.88;;;;;;;13.03;100.00;99447.78;4902528;29;20048;-54
2022/02/21 09:51:48;;;;;;;24.83;4.67;;;;;;;13.02;100.00;99451.50;4916307;29;20092;-48
2022/02/21 09:54:15;;;;;;;24.40;3.47;;;;;;;12.57;100.00;99450.56;4909446;29;20398;-53
2022/02/21 09:56:42;;;;;;;62.90;8.38;;;;;;;13.45;100.00;99448.38;4898344;29;20044;-51
2022/02/21 09:59:09;;;;;;;23.20;3.83;;;;;;;13.24;100.00;99434.63;4914509;29;20100;-51
2022/02/21 10:01:37;;;;;;;16.73;3.42;;;;;;;12.69;100.00;99460.38;4898578;29;20113;-52
2022/02/21 10:04:03;;;;;;;21.60;3.13;;;;;;;16.36;100.00;99478.28;4906145;29;20051;-53
2022/02/21 10:06:30;;;;;;;42.45;6.40;;;;;;;16.67;100.00;99546.59;4891334;29;20068;-55
2022/02/21 10:09:10;;;;;;;20.02;2.97;;;;;;;15.85;100.00;99485.13;4916784;29;20040;-54
2022/02/21 10:11:48;;;;;;;36.65;5.30;;;;;;;15.43;100.00;99470.63;4902316;29;20062;-51
2022/02/21 10:14:16;;;;;;;22.60;4.50;;;;;;;14.54;100.00;99453.03;4907094;29;20097;-50
2022/02/21 10:16:51;;;;;;;27.50;3.67;;;;;;;16.02;100.00;99461.47;4906231;29;20061;-52
2022/02/21 10:19:25;;;;;;;23.40;4.85;;;;;;;13.79;100.00;99477.00;4915181;29;20040;-53
2022/02/21 10:21:59;;;;;;;0.85;0.85;;;;;;;15.67;100.00;99470.19;4912905;29;20074;-53
2022/02/21 10:24:37;;;;;;;0.10;0.10;;;;;;;16.05;100.00;99460.97;4908554;29;20135;-50
2022/02/21 10:27:17;;;;;;;2.00;0.82;;;;;;;15.77;95.29;99462.19;4903419;29;20048;-52
2022/02/21 10:29:53;;;;;;;0.20;0.20;;;;;;;15.46;100.00;99478.22;4917621;29;20040;-50
2022/02/21 10:32:21;;;;;;;0.20;0.20;;;;;;;14.14;100.00;99470.41;4909093;29;20048;-53
2022/02/21 10:34:47;;;;;;;6.55;1.95;;;;;;;15.82;100.00;99432.53;4911286;29;20068;-52
2022/02/21 10:37:19;;;;;;;0.30;0.30;;;;;;;16.07;100.00;99460.66;4902034;29;20073;-54
2022/02/21 10:39:45;;;;;;;0.30;0.30;;;;;;;15.52;84.30;99524.84;4917567;29;20099;-53
2022/02/21 10:42:11;;;;;;;0.10;0.10;;;;;;;13.51;100.00;99450.06;4917693;29;20052;-53
2022/02/21 10:44:38;;;;;;;0.13;0.13;;;;;;;17.23;100.00;99479.38;4906722;29;20041;-53
2022/02/21 10:47:23;;;;;;;0.20;0.20;;;;;;;19.42;65.59;99437.13;4913337;29;20033;-50
2022/02/21 10:50:00;;;;;;;0.15;0.15;;;;;;;16.71;100.00;99444.28;4903435;29;20045;-50
2022/02/21 10:52:35;;;;;;;0.20;0.20;;;;;;;12.42;100.00;99499.34;4917592;29;20482;-49
2022/02/21 10:55:00;;;;;;;33.20;4.55;;;;;;;15.94;100.00;99439.63;4903365;29;20128;-54
2022/02/21 10:57:27;;;;;;;23.80;4.90;;;;;;;14.65;100.00;99410.88;4914357;29;20040;-52
2022/02/21 10:59:55;;;;;;;28.13;5.07;;;;;;;15.77;100.00;99416.34;4900838;29;20029;-54
2022/02/21 11:02:22;;;;;;;27.98;5.05;;;;;;;14.86;100.00;99432.59;4911065;29;20068;-51
2022/02/21 11:04:48;;;;;;;38.65;4.22;;;;;;;16.92;83.47;99389.19;4908241;29;20044;-51
2022/02/21 11:07:14;;;;;;;27.65;3.65;;;;;;;16.35;89.07;99445.06;4916957;29;20139;-51
2022/02/21 11:09:41;;;;;;;27.40;4.13;;;;;;;15.46;100.00;99397.41;4914460;29;20024;-51
2022/02/21 11:12:07;;;;;;;37.75;4.85;;;;;;;15.83;100.00;99436.06;4913080;29;20041;-54
2022/02/21 11:14:34;;;;;;;28.98;5.20;;;;;;;16.27;100.00;99397.88;4912310;29;20036;-53
2022/02/21 11:17:03;;;;;;;48.00;5.60;;;;;;;17.38;86.19;99427.19;4906587;29;20057;-53